sensor_id;sensor_type;location;lat;lon;timestamp;P1;durP1;ratioP1;P2;durP2;ratioP2
65271;SDS011;51868;48.812;8.198;2023-05-23T00:00:37;12.85;;;11.05;;
65271;SDS011;51868;48.812;8.198;2023-05-23T00:03:07;14.65;;;11.43;;
65271;SDS011;51868;48.812;8.198;2023-05-23T00:05:36;12.35;;;11.05;;
65271;SDS011;51868;48.812;8.198;2023-05-23T00:08:05;13.82;;;11.43;;
65271;SDS011;51868;48.812;8.198;2023-05-23T00:10:33;14.73;;;11.63;;
65271;SDS011;51868;48.812;8.198;2023-05-23T00:13:01;17.02;;;12.20;;
65271;SDS011;51868;48.812;8.198;2023-05-23T00:15:31;14.35;;;12.32;;
65271;SDS011;51868;48.812;8.198;2023-05-23T00:17:59;15.05;;;11.65;;
65271;SDS011;51868;48.812;8.198;2023-05-23T00:20:28;20.15;;;12.20;;
65271;SDS011;51868;48.812;8.198;2023-05-23T00:22:57;14.52;;;11.73;;
65271;SDS011;51868;48.812;8.198;2023-05-23T00:25:25;16.83;;;11.98;;
65271;SDS011;51868;48.812;8.198;2023-05-23T00:27:59;16.73;;;12.10;;
65271;SDS011;51868;48.812;8.198;2023-05-23T00:30:28;14.90;;;12.15;;
65271;SDS011;51868;48.812;8.198;2023-05-23T00:32:57;15.20;;;12.13;;
65271;SDS011;51868;48.812;8.198;2023-05-23T00:35:26;17.38;;;13.00;;
65271;SDS011;51868;48.812;8.198;2023-05-23T00:37:56;17.35;;;12.27;;
65271;SDS011;51868;48.812;8.198;2023-05-23T00:40:23;16.60;;;12.73;;
65271;SDS011;51868;48.812;8.198;2023-05-23T00:42:51;16.13;;;12.25;;
65271;SDS011;51868;48.812;8.198;2023-05-23T00:45:19;14.27;;;11.85;;
65271;SDS011;51868;48.812;8.198;2023-05-23T00:47:47;16.55;;;12.00;;
65271;SDS011;51868;48.812;8.198;2023-05-23T00:50:16;13.55;;;11.52;;
65271;SDS011;51868;48.812;8.198;2023-05-23T00:52:45;14.45;;;11.98;;
65271;SDS011;51868;48.812;8.198;2023-05-23T00:55:16;14.23;;;11.40;;
65271;SDS011;51868;48.812;8.198;2023-05-23T00:57:44;14.02;;;10.70;;
65271;SDS011;51868;48.812;8.198;2023-05-23T01:00:12;13.25;;;11.05;;
65271;SDS011;51868;48.812;8.198;2023-05-23T01:02:42;13.80;;;11.45;;
65271;SDS011;51868;48.812;8.198;2023-05-23T01:05:12;13.18;;;11.15;;
65271;SDS011;51868;48.812;8.198;2023-05-23T01:07:43;15.77;;;11.52;;
65271;SDS011;51868;48.812;8.198;2023-05-23T01:10:11;12.60;;;10.90;;
65271;SDS011;51868;48.812;8.198;2023-05-23T01:12:44;14.75;;;11.35;;
65271;SDS011;51868;48.812;8.198;2023-05-23T01:15:18;14.23;;;11.07;;
65271;SDS011;51868;48.812;8.198;2023-05-23T01:17:51;16.52;;;12.75;;
65271;SDS011;51868;48.812;8.198;2023-05-23T01:20:27;13.63;;;11.75;;
65271;SDS011;51868;48.812;8.198;2023-05-23T01:23:10;16.67;;;12.82;;
65271;SDS011;51868;48.812;8.198;2023-05-23T01:25:49;14.18;;;11.40;;
65271;SDS011;51868;48.812;8.198;2023-05-23T01:28:32;17.02;;;11.80;;
65271;SDS011;51868;48.812;8.198;2023-05-23T01:31:04;15.88;;;13.10;;
65271;SDS011;51868;48.812;8.198;2023-05-23T01:33:35;12.70;;;11.30;;
65271;SDS011;51868;48.812;8.198;2023-05-23T01:36:06;14.50;;;11.73;;
65271;SDS011;51868;48.812;8.198;2023-05-23T01:38:35;16.75;;;12.15;;
65271;SDS011;51868;48.812;8.198;2023-05-23T01:41:03;19.42;;;12.82;;
65271;SDS011;51868;48.812;8.198;2023-05-23T01:43:33;14.57;;;12.32;;
65271;SDS011;51868;48.812;8.198;2023-05-23T01:46:01;17.25;;;12.77;;
65271;SDS011;51868;48.812;8.198;2023-05-23T01:48:31;14.38;;;11.85;;
65271;SDS011;51868;48.812;8.198;2023-05-23T01:50:59;18.67;;;12.98;;
65271;SDS011;51868;48.812;8.198;2023-05-23T01:53:28;16.55;;;13.10;;
65271;SDS011;51868;48.812;8.198;2023-05-23T01:55:57;15.55;;;12.98;;
65271;SDS011;51868;48.812;8.198;2023-05-23T01:58:29;16.30;;;12.20;;
65271;SDS011;51868;48.812;8.198;2023-05-23T02:00:58;16.48;;;13.68;;
65271;SDS011;51868;48.812;8.198;2023-05-23T02:03:26;17.80;;;13.65;;
65271;SDS011;51868;48.812;8.198;2023-05-23T02:05:54;18.38;;;13.95;;
65271;SDS011;51868;48.812;8.198;2023-05-23T02:08:22;16.77;;;13.75;;
65271;SDS011;51868;48.812;8.198;2023-05-23T02:10:51;19.77;;;13.82;;
65271;SDS011;51868;48.812;8.198;2023-05-23T02:13:19;16.95;;;13.40;;
65271;SDS011;51868;48.812;8.198;2023-05-23T02:15:46;18.67;;;13.63;;
65271;SDS011;51868;48.812;8.198;2023-05-23T02:18:16;18.73;;;13.93;;
65271;SDS011;51868;48.812;8.198;2023-05-23T02:20:44;14.75;;;13.00;;
65271;SDS011;51868;48.812;8.198;2023-05-23T02:23:12;16.38;;;12.90;;
65271;SDS011;51868;48.812;8.198;2023-05-23T02:25:40;18.73;;;14.23;;
65271;SDS011;51868;48.812;8.198;2023-05-23T02:28:08;17.10;;;13.10;;
65271;SDS011;51868;48.812;8.198;2023-05-23T02:30:37;17.95;;;13.57;;
65271;SDS011;51868;48.812;8.198;2023-05-23T02:33:05;23.42;;;12.98;;
65271;SDS011;51868;48.812;8.198;2023-05-23T02:35:35;18.02;;;13.32;;
65271;SDS011;51868;48.812;8.198;2023-05-23T02:38:03;16.50;;;13.65;;
65271;SDS011;51868;48.812;8.198;2023-05-23T02:40:31;18.27;;;13.07;;
65271;SDS011;51868;48.812;8.198;2023-05-23T02:42:59;19.52;;;14.23;;
65271;SDS011;51868;48.812;8.198;2023-05-23T02:45:27;18.95;;;14.60;;
65271;SDS011;51868;48.812;8.198;2023-05-23T02:47:54;16.98;;;13.85;;
65271;SDS011;51868;48.812;8.198;2023-05-23T02:50:22;17.17;;;13.63;;
65271;SDS011;51868;48.812;8.198;2023-05-23T02:52:51;16.65;;;14.02;;
65271;SDS011;51868;48.812;8.198;2023-05-23T02:55:19;17.20;;;13.13;;
65271;SDS011;51868;48.812;8.198;2023-05-23T02:57:48;15.40;;;12.63;;
65271;SDS011;51868;48.812;8.198;2023-05-23T03:00:16;16.95;;;12.45;;
65271;SDS011;51868;48.812;8.198;2023-05-23T03:02:45;14.88;;;13.00;;
65271;SDS011;51868;48.812;8.198;2023-05-23T03:05:13;18.15;;;12.98;;
65271;SDS011;51868;48.812;8.198;2023-05-23T03:07:40;17.33;;;13.50;;
65271;SDS011;51868;48.812;8.198;2023-05-23T03:10:10;15.23;;;13.07;;
65271;SDS011;51868;48.812;8.198;2023-05-23T03:12:38;15.85;;;12.65;;
65271;SDS011;51868;48.812;8.198;2023-05-23T03:15:07;15.60;;;12.20;;
65271;SDS011;51868;48.812;8.198;2023-05-23T03:17:35;19.20;;;13.80;;
65271;SDS011;51868;48.812;8.198;2023-05-23T03:20:04;16.58;;;12.85;;
65271;SDS011;51868;48.812;8.198;2023-05-23T03:22:35;15.32;;;13.27;;
65271;SDS011;51868;48.812;8.198;2023-05-23T03:25:03;15.57;;;13.00;;
65271;SDS011;51868;48.812;8.198;2023-05-23T03:27:33;19.02;;;13.75;;
65271;SDS011;51868;48.812;8.198;2023-05-23T03:30:01;15.85;;;13.27;;
65271;SDS011;51868;48.812;8.198;2023-05-23T03:32:29;17.30;;;12.85;;
65271;SDS011;51868;48.812;8.198;2023-05-23T03:34:57;18.90;;;13.95;;
65271;SDS011;51868;48.812;8.198;2023-05-23T03:37:25;15.57;;;12.65;;
65271;SDS011;51868;48.812;8.198;2023-05-23T03:39:53;16.98;;;13.88;;
65271;SDS011;51868;48.812;8.198;2023-05-23T03:42:21;16.80;;;13.40;;
65271;SDS011;51868;48.812;8.198;2023-05-23T03:44:50;17.80;;;13.85;;
65271;SDS011;51868;48.812;8.198;2023-05-23T03:47:19;21.88;;;13.95;;
65271;SDS011;51868;48.812;8.198;2023-05-23T03:49:47;21.58;;;14.70;;
65271;SDS011;51868;48.812;8.198;2023-05-23T03:52:15;19.30;;;16.02;;
65271;SDS011;51868;48.812;8.198;2023-05-23T03:54:43;21.70;;;16.58;;
65271;SDS011;51868;48.812;8.198;2023-05-23T03:57:11;20.13;;;16.85;;
65271;SDS011;51868;48.812;8.198;2023-05-23T03:59:39;19.17;;;16.17;;
65271;SDS011;51868;48.812;8.198;2023-05-23T04:02:08;23.38;;;16.60;;
65271;SDS011;51868;48.812;8.198;2023-05-23T04:04:36;22.25;;;17.95;;
65271;SDS011;51868;48.812;8.198;2023-05-23T04:07:11;21.25;;;16.10;;
65271;SDS011;51868;48.812;8.198;2023-05-23T04:09:41;22.85;;;17.17;;
65271;SDS011;51868;48.812;8.198;2023-05-23T04:12:08;20.95;;;17.17;;
65271;SDS011;51868;48.812;8.198;2023-05-23T04:14:37;21.33;;;16.65;;
65271;SDS011;51868;48.812;8.198;2023-05-23T04:17:05;22.02;;;16.60;;
65271;SDS011;51868;48.812;8.198;2023-05-23T04:19:36;21.90;;;16.83;;
65271;SDS011;51868;48.812;8.198;2023-05-23T04:22:04;25.45;;;17.60;;
65271;SDS011;51868;48.812;8.198;2023-05-23T04:24:32;20.88;;;16.85;;
65271;SDS011;51868;48.812;8.198;2023-05-23T04:27:00;22.73;;;17.15;;
65271;SDS011;51868;48.812;8.198;2023-05-23T04:29:28;23.83;;;17.92;;
65271;SDS011;51868;48.812;8.198;2023-05-23T04:31:56;22.30;;;17.13;;
65271;SDS011;51868;48.812;8.198;2023-05-23T04:34:25;21.85;;;17.55;;
65271;SDS011;51868;48.812;8.198;2023-05-23T04:36:54;24.30;;;17.92;;
65271;SDS011;51868;48.812;8.198;2023-05-23T04:39:22;22.55;;;17.80;;
65271;SDS011;51868;48.812;8.198;2023-05-23T04:41:51;23.17;;;16.98;;
65271;SDS011;51868;48.812;8.198;2023-05-23T04:44:20;22.40;;;17.02;;
65271;SDS011;51868;48.812;8.198;2023-05-23T04:47:03;23.02;;;16.75;;
65271;SDS011;51868;48.812;8.198;2023-05-23T04:49:34;19.95;;;16.08;;
65271;SDS011;51868;48.812;8.198;2023-05-23T04:52:05;21.13;;;16.38;;
65271;SDS011;51868;48.812;8.198;2023-05-23T04:54:33;21.67;;;16.67;;
65271;SDS011;51868;48.812;8.198;2023-05-23T04:57:03;23.80;;;17.90;;
65271;SDS011;51868;48.812;8.198;2023-05-23T04:59:31;20.23;;;16.48;;
65271;SDS011;51868;48.812;8.198;2023-05-23T05:01:59;26.75;;;18.05;;
65271;SDS011;51868;48.812;8.198;2023-05-23T05:04:27;22.60;;;16.38;;
65271;SDS011;51868;48.812;8.198;2023-05-23T05:06:57;22.50;;;16.88;;
65271;SDS011;51868;48.812;8.198;2023-05-23T05:09:26;23.05;;;16.85;;
65271;SDS011;51868;48.812;8.198;2023-05-23T05:11:54;21.80;;;17.10;;
65271;SDS011;51868;48.812;8.198;2023-05-23T05:14:22;19.92;;;16.42;;
65271;SDS011;51868;48.812;8.198;2023-05-23T05:16:50;21.20;;;16.60;;
65271;SDS011;51868;48.812;8.198;2023-05-23T05:19:19;18.83;;;15.48;;
65271;SDS011;51868;48.812;8.198;2023-05-23T05:21:48;20.83;;;16.00;;
65271;SDS011;51868;48.812;8.198;2023-05-23T05:24:16;22.00;;;17.02;;
65271;SDS011;51868;48.812;8.198;2023-05-23T05:26:47;19.35;;;15.32;;
65271;SDS011;51868;48.812;8.198;2023-05-23T05:29:16;24.13;;;16.85;;
65271;SDS011;51868;48.812;8.198;2023-05-23T05:31:44;23.65;;;16.38;;
65271;SDS011;51868;48.812;8.198;2023-05-23T05:34:12;20.27;;;15.43;;
65271;SDS011;51868;48.812;8.198;2023-05-23T05:36:41;22.55;;;16.75;;
65271;SDS011;51868;48.812;8.198;2023-05-23T05:39:13;25.23;;;17.77;;
65271;SDS011;51868;48.812;8.198;2023-05-23T05:41:41;23.75;;;17.00;;
65271;SDS011;51868;48.812;8.198;2023-05-23T05:44:10;22.33;;;16.73;;
65271;SDS011;51868;48.812;8.198;2023-05-23T05:46:38;24.17;;;16.63;;
65271;SDS011;51868;48.812;8.198;2023-05-23T05:49:06;24.20;;;17.73;;
65271;SDS011;51868;48.812;8.198;2023-05-23T05:51:37;24.92;;;18.90;;
65271;SDS011;51868;48.812;8.198;2023-05-23T05:54:04;26.08;;;18.40;;
65271;SDS011;51868;48.812;8.198;2023-05-23T05:56:32;28.52;;;21.15;;
65271;SDS011;51868;48.812;8.198;2023-05-23T05:59:01;27.80;;;21.23;;
65271;SDS011;51868;48.812;8.198;2023-05-23T06:01:30;27.73;;;20.27;;
65271;SDS011;51868;48.812;8.198;2023-05-23T06:04:00;26.50;;;19.92;;
65271;SDS011;51868;48.812;8.198;2023-05-23T06:06:28;27.13;;;20.90;;
65271;SDS011;51868;48.812;8.198;2023-05-23T06:08:57;28.27;;;19.95;;
65271;SDS011;51868;48.812;8.198;2023-05-23T06:11:25;29.65;;;20.58;;
65271;SDS011;51868;48.812;8.198;2023-05-23T06:13:53;29.60;;;21.60;;
65271;SDS011;51868;48.812;8.198;2023-05-23T06:16:21;32.13;;;20.55;;
65271;SDS011;51868;48.812;8.198;2023-05-23T06:18:51;25.73;;;19.63;;
65271;SDS011;51868;48.812;8.198;2023-05-23T06:21:19;26.75;;;20.60;;
65271;SDS011;51868;48.812;8.198;2023-05-23T06:23:47;31.77;;;20.55;;
65271;SDS011;51868;48.812;8.198;2023-05-23T06:26:15;25.52;;;19.10;;
65271;SDS011;51868;48.812;8.198;2023-05-23T06:28:43;27.08;;;19.20;;
65271;SDS011;51868;48.812;8.198;2023-05-23T06:31:11;21.17;;;17.08;;
65271;SDS011;51868;48.812;8.198;2023-05-23T06:33:39;22.30;;;16.00;;
65271;SDS011;51868;48.812;8.198;2023-05-23T06:36:09;24.02;;;17.65;;
65271;SDS011;51868;48.812;8.198;2023-05-23T06:38:40;21.52;;;17.65;;
65271;SDS011;51868;48.812;8.198;2023-05-23T06:41:09;22.60;;;16.80;;
65271;SDS011;51868;48.812;8.198;2023-05-23T06:43:37;21.35;;;16.52;;
65271;SDS011;51868;48.812;8.198;2023-05-23T06:46:05;18.17;;;15.55;;
65271;SDS011;51868;48.812;8.198;2023-05-23T06:48:33;20.15;;;15.20;;
65271;SDS011;51868;48.812;8.198;2023-05-23T06:51:00;22.20;;;16.27;;
65271;SDS011;51868;48.812;8.198;2023-05-23T06:53:34;22.25;;;15.93;;
65271;SDS011;51868;48.812;8.198;2023-05-23T06:56:01;22.00;;;16.08;;
65271;SDS011;51868;48.812;8.198;2023-05-23T06:58:30;21.85;;;15.50;;
65271;SDS011;51868;48.812;8.198;2023-05-23T07:00:58;20.25;;;14.82;;
65271;SDS011;51868;48.812;8.198;2023-05-23T07:07:24;21.58;;;14.57;;
65271;SDS011;51868;48.812;8.198;2023-05-23T07:09:53;21.02;;;15.60;;
65271;SDS011;51868;48.812;8.198;2023-05-23T07:16:14;19.35;;;15.98;;
65271;SDS011;51868;48.812;8.198;2023-05-23T07:18:57;26.15;;;17.60;;
65271;SDS011;51868;48.812;8.198;2023-05-23T07:21:27;26.95;;;17.02;;
65271;SDS011;51868;48.812;8.198;2023-05-23T07:24:09;19.67;;;16.17;;
65271;SDS011;51868;48.812;8.198;2023-05-23T07:34:23;19.95;;;15.85;;
65271;SDS011;51868;48.812;8.198;2023-05-23T07:36:59;19.70;;;15.48;;
65271;SDS011;51868;48.812;8.198;2023-05-23T07:39:27;17.13;;;15.30;;
65271;SDS011;51868;48.812;8.198;2023-05-23T07:41:58;17.77;;;14.32;;
65271;SDS011;51868;48.812;8.198;2023-05-23T07:44:25;17.98;;;14.98;;
65271;SDS011;51868;48.812;8.198;2023-05-23T07:47:03;17.10;;;14.25;;
65271;SDS011;51868;48.812;8.198;2023-05-23T07:49:44;16.83;;;14.13;;
65271;SDS011;51868;48.812;8.198;2023-05-23T07:52:13;18.10;;;13.55;;
65271;SDS011;51868;48.812;8.198;2023-05-23T07:54:46;15.95;;;13.20;;
65271;SDS011;51868;48.812;8.198;2023-05-23T07:57:23;14.40;;;12.90;;
65271;SDS011;51868;48.812;8.198;2023-05-23T08:02:41;17.80;;;11.43;;
65271;SDS011;51868;48.812;8.198;2023-05-23T08:05:20;22.05;;;11.90;;
65271;SDS011;51868;48.812;8.198;2023-05-23T08:07:53;14.20;;;12.18;;
65271;SDS011;51868;48.812;8.198;2023-05-23T08:10:33;13.10;;;11.23;;
65271;SDS011;51868;48.812;8.198;2023-05-23T08:13:02;12.18;;;9.93;;
65271;SDS011;51868;48.812;8.198;2023-05-23T08:15:35;14.02;;;11.27;;
65271;SDS011;51868;48.812;8.198;2023-05-23T08:18:06;14.87;;;10.17;;
65271;SDS011;51868;48.812;8.198;2023-05-23T08:20:34;16.35;;;10.23;;
65271;SDS011;51868;48.812;8.198;2023-05-23T08:23:08;10.45;;;9.00;;
65271;SDS011;51868;48.812;8.198;2023-05-23T08:25:37;10.82;;;8.57;;
65271;SDS011;51868;48.812;8.198;2023-05-23T08:28:07;12.60;;;8.43;;
65271;SDS011;51868;48.812;8.198;2023-05-23T08:30:34;9.73;;;7.88;;
65271;SDS011;51868;48.812;8.198;2023-05-23T08:33:02;10.52;;;8.18;;
65271;SDS011;51868;48.812;8.198;2023-05-23T08:35:34;10.82;;;7.70;;
65271;SDS011;51868;48.812;8.198;2023-05-23T08:38:04;14.55;;;8.95;;
65271;SDS011;51868;48.812;8.198;2023-05-23T08:40:34;11.43;;;8.70;;
65271;SDS011;51868;48.812;8.198;2023-05-23T08:43:03;12.10;;;9.45;;
65271;SDS011;51868;48.812;8.198;2023-05-23T08:45:32;12.18;;;9.32;;
65271;SDS011;51868;48.812;8.198;2023-05-23T08:48:01;11.52;;;9.30;;
65271;SDS011;51868;48.812;8.198;2023-05-23T08:50:35;12.23;;;9.45;;
65271;SDS011;51868;48.812;8.198;2023-05-23T08:53:15;10.50;;;9.00;;
65271;SDS011;51868;48.812;8.198;2023-05-23T08:56:03;14.13;;;9.82;;
65271;SDS011;51868;48.812;8.198;2023-05-23T08:58:38;14.60;;;9.85;;
65271;SDS011;51868;48.812;8.198;2023-05-23T09:01:08;14.45;;;9.93;;
65271;SDS011;51868;48.812;8.198;2023-05-23T09:03:44;13.68;;;9.68;;
65271;SDS011;51868;48.812;8.198;2023-05-23T09:06:27;15.18;;;9.88;;
65271;SDS011;51868;48.812;8.198;2023-05-23T09:08:59;11.45;;;8.95;;
65271;SDS011;51868;48.812;8.198;2023-05-23T09:11:42;12.43;;;9.07;;
65271;SDS011;51868;48.812;8.198;2023-05-23T09:17:24;14.30;;;9.85;;
65271;SDS011;51868;48.812;8.198;2023-05-23T09:20:16;11.13;;;9.20;;
65271;SDS011;51868;48.812;8.198;2023-05-23T09:22:54;12.35;;;8.98;;
65271;SDS011;51868;48.812;8.198;2023-05-23T09:25:29;12.43;;;9.55;;
65271;SDS011;51868;48.812;8.198;2023-05-23T09:31:25;10.77;;;8.88;;
65271;SDS011;51868;48.812;8.198;2023-05-23T09:33:56;12.57;;;9.97;;
65271;SDS011;51868;48.812;8.198;2023-05-23T09:36:26;12.73;;;9.07;;
65271;SDS011;51868;48.812;8.198;2023-05-23T09:38:56;17.13;;;10.00;;
65271;SDS011;51868;48.812;8.198;2023-05-23T09:41:29;12.85;;;8.63;;
65271;SDS011;51868;48.812;8.198;2023-05-23T09:43:57;11.55;;;8.23;;
65271;SDS011;51868;48.812;8.198;2023-05-23T09:46:27;12.23;;;8.80;;
65271;SDS011;51868;48.812;8.198;2023-05-23T09:48:57;13.45;;;8.80;;
65271;SDS011;51868;48.812;8.198;2023-05-23T09:51:25;9.48;;;7.43;;
65271;SDS011;51868;48.812;8.198;2023-05-23T09:53:59;9.75;;;7.85;;
65271;SDS011;51868;48.812;8.198;2023-05-23T09:59:44;10.88;;;8.05;;
65271;SDS011;51868;48.812;8.198;2023-05-23T10:02:16;9.63;;;6.93;;
65271;SDS011;51868;48.812;8.198;2023-05-23T10:05:08;9.75;;;7.28;;
65271;SDS011;51868;48.812;8.198;2023-05-23T10:07:45;13.23;;;7.53;;
65271;SDS011;51868;48.812;8.198;2023-05-23T10:10:14;9.25;;;6.88;;
65271;SDS011;51868;48.812;8.198;2023-05-23T10:12:46;8.07;;;6.95;;
65271;SDS011;51868;48.812;8.198;2023-05-23T10:15:18;14.55;;;6.95;;
65271;SDS011;51868;48.812;8.198;2023-05-23T10:17:52;12.45;;;7.20;;
65271;SDS011;51868;48.812;8.198;2023-05-23T10:20:31;7.88;;;6.40;;
65271;SDS011;51868;48.812;8.198;2023-05-23T10:23:13;8.45;;;6.28;;
65271;SDS011;51868;48.812;8.198;2023-05-23T10:25:42;6.95;;;6.25;;
65271;SDS011;51868;48.812;8.198;2023-05-23T10:28:10;6.82;;;6.13;;
65271;SDS011;51868;48.812;8.198;2023-05-23T10:30:40;8.05;;;6.05;;
65271;SDS011;51868;48.812;8.198;2023-05-23T10:33:08;7.90;;;6.30;;
65271;SDS011;51868;48.812;8.198;2023-05-23T10:35:44;7.28;;;6.35;;
65271;SDS011;51868;48.812;8.198;2023-05-23T10:38:24;8.25;;;6.70;;
65271;SDS011;51868;48.812;8.198;2023-05-23T10:41:00;9.57;;;7.07;;
65271;SDS011;51868;48.812;8.198;2023-05-23T10:43:39;6.40;;;5.70;;
65271;SDS011;51868;48.812;8.198;2023-05-23T10:46:11;8.30;;;5.80;;
65271;SDS011;51868;48.812;8.198;2023-05-23T10:48:40;7.15;;;5.68;;
65271;SDS011;51868;48.812;8.198;2023-05-23T10:51:11;6.57;;;5.93;;
65271;SDS011;51868;48.812;8.198;2023-05-23T10:53:40;6.80;;;6.10;;
65271;SDS011;51868;48.812;8.198;2023-05-23T10:56:10;6.72;;;6.03;;
65271;SDS011;51868;48.812;8.198;2023-05-23T10:58:51;8.45;;;6.05;;
65271;SDS011;51868;48.812;8.198;2023-05-23T11:01:20;6.97;;;6.28;;
65271;SDS011;51868;48.812;8.198;2023-05-23T11:03:50;8.10;;;5.45;;
65271;SDS011;51868;48.812;8.198;2023-05-23T11:06:29;8.52;;;5.35;;
65271;SDS011;51868;48.812;8.198;2023-05-23T11:09:02;6.85;;;6.15;;
65271;SDS011;51868;48.812;8.198;2023-05-23T11:11:52;6.72;;;5.28;;
65271;SDS011;51868;48.812;8.198;2023-05-23T11:17:30;5.95;;;5.32;;
65271;SDS011;51868;48.812;8.198;2023-05-23T11:20:00;5.45;;;4.93;;
65271;SDS011;51868;48.812;8.198;2023-05-23T11:22:34;6.07;;;4.65;;
65271;SDS011;51868;48.812;8.198;2023-05-23T11:25:05;5.30;;;4.80;;
65271;SDS011;51868;48.812;8.198;2023-05-23T11:30:06;5.40;;;4.90;;
65271;SDS011;51868;48.812;8.198;2023-05-23T11:32:35;6.57;;;4.40;;
65271;SDS011;51868;48.812;8.198;2023-05-23T11:35:03;5.53;;;4.65;;
65271;SDS011;51868;48.812;8.198;2023-05-23T11:37:34;5.40;;;4.90;;
65271;SDS011;51868;48.812;8.198;2023-05-23T11:43:01;5.20;;;4.70;;
65271;SDS011;51868;48.812;8.198;2023-05-23T11:45:30;6.55;;;5.10;;
65271;SDS011;51868;48.812;8.198;2023-05-23T11:48:03;5.60;;;5.10;;
65271;SDS011;51868;48.812;8.198;2023-05-23T11:50:32;5.80;;;4.85;;
65271;SDS011;51868;48.812;8.198;2023-05-23T11:53:02;6.53;;;5.18;;
65271;SDS011;51868;48.812;8.198;2023-05-23T11:55:30;4.97;;;4.47;;
65271;SDS011;51868;48.812;8.198;2023-05-23T11:57:59;5.68;;;4.70;;
65271;SDS011;51868;48.812;8.198;2023-05-23T12:00:27;5.47;;;4.57;;
65271;SDS011;51868;48.812;8.198;2023-05-23T12:02:57;5.30;;;4.68;;
65271;SDS011;51868;48.812;8.198;2023-05-23T12:05:25;5.50;;;4.40;;
65271;SDS011;51868;48.812;8.198;2023-05-23T12:07:58;5.18;;;4.68;;
65271;SDS011;51868;48.812;8.198;2023-05-23T12:10:28;4.85;;;4.35;;
65271;SDS011;51868;48.812;8.198;2023-05-23T12:12:56;5.15;;;4.65;;
65271;SDS011;51868;48.812;8.198;2023-05-23T12:15:24;5.10;;;4.53;;
65271;SDS011;51868;48.812;8.198;2023-05-23T12:17:53;7.35;;;4.55;;
65271;SDS011;51868;48.812;8.198;2023-05-23T12:20:22;6.47;;;4.18;;
65271;SDS011;51868;48.812;8.198;2023-05-23T12:22:52;4.95;;;3.60;;
65271;SDS011;51868;48.812;8.198;2023-05-23T12:25:20;4.57;;;3.42;;
65271;SDS011;51868;48.812;8.198;2023-05-23T12:27:53;4.35;;;3.42;;
65271;SDS011;51868;48.812;8.198;2023-05-23T12:30:21;3.95;;;3.55;;
65271;SDS011;51868;48.812;8.198;2023-05-23T12:32:49;4.43;;;3.60;;
65271;SDS011;51868;48.812;8.198;2023-05-23T12:35:17;3.83;;;3.50;;
65271;SDS011;51868;48.812;8.198;2023-05-23T12:37:45;4.40;;;4.00;;
65271;SDS011;51868;48.812;8.198;2023-05-23T12:40:13;3.88;;;3.47;;
65271;SDS011;51868;48.812;8.198;2023-05-23T12:42:48;4.15;;;3.65;;
65271;SDS011;51868;48.812;8.198;2023-05-23T12:45:20;5.25;;;4.75;;
65271;SDS011;51868;48.812;8.198;2023-05-23T12:47:48;5.22;;;3.83;;
65271;SDS011;51868;48.812;8.198;2023-05-23T12:50:19;3.70;;;3.40;;
65271;SDS011;51868;48.812;8.198;2023-05-23T12:52:47;3.85;;;3.20;;
65271;SDS011;51868;48.812;8.198;2023-05-23T12:55:15;3.55;;;2.92;;
65271;SDS011;51868;48.812;8.198;2023-05-23T12:57:43;3.92;;;2.90;;
65271;SDS011;51868;48.812;8.198;2023-05-23T13:00:11;3.22;;;2.78;;
65271;SDS011;51868;48.812;8.198;2023-05-23T13:02:41;3.08;;;2.72;;
65271;SDS011;51868;48.812;8.198;2023-05-23T13:05:10;3.17;;;2.88;;
65271;SDS011;51868;48.812;8.198;2023-05-23T13:07:38;4.22;;;3.00;;
65271;SDS011;51868;48.812;8.198;2023-05-23T13:10:15;3.72;;;2.72;;
65271;SDS011;51868;48.812;8.198;2023-05-23T13:13:10;2.80;;;2.60;;
65271;SDS011;51868;48.812;8.198;2023-05-23T13:15:38;3.10;;;2.80;;
65271;SDS011;51868;48.812;8.198;2023-05-23T13:18:10;3.22;;;2.92;;
65271;SDS011;51868;48.812;8.198;2023-05-23T13:20:38;3.80;;;2.88;;
65271;SDS011;51868;48.812;8.198;2023-05-23T13:23:07;4.40;;;3.05;;
65271;SDS011;51868;48.812;8.198;2023-05-23T13:25:36;3.40;;;2.70;;
65271;SDS011;51868;48.812;8.198;2023-05-23T13:28:04;4.65;;;3.03;;
65271;SDS011;51868;48.812;8.198;2023-05-23T13:30:33;4.95;;;3.33;;
65271;SDS011;51868;48.812;8.198;2023-05-23T13:33:01;4.60;;;3.03;;
65271;SDS011;51868;48.812;8.198;2023-05-23T13:35:30;3.83;;;2.78;;
65271;SDS011;51868;48.812;8.198;2023-05-23T13:37:59;3.10;;;2.80;;
65271;SDS011;51868;48.812;8.198;2023-05-23T13:40:27;4.40;;;3.10;;
65271;SDS011;51868;48.812;8.198;2023-05-23T13:42:55;5.57;;;2.90;;
65271;SDS011;51868;48.812;8.198;2023-05-23T13:45:23;3.22;;;2.92;;
65271;SDS011;51868;48.812;8.198;2023-05-23T13:47:51;3.35;;;3.05;;
65271;SDS011;51868;48.812;8.198;2023-05-23T13:50:19;3.25;;;2.95;;
65271;SDS011;51868;48.812;8.198;2023-05-23T13:52:48;3.78;;;3.38;;
65271;SDS011;51868;48.812;8.198;2023-05-23T13:55:17;4.68;;;3.08;;
65271;SDS011;51868;48.812;8.198;2023-05-23T13:57:44;3.97;;;2.88;;
65271;SDS011;51868;48.812;8.198;2023-05-23T14:00:13;3.53;;;2.92;;
65271;SDS011;51868;48.812;8.198;2023-05-23T14:02:41;3.35;;;3.05;;
65271;SDS011;51868;48.812;8.198;2023-05-23T14:05:09;4.22;;;3.42;;
65271;SDS011;51868;48.812;8.198;2023-05-23T14:07:37;3.70;;;2.80;;
65271;SDS011;51868;48.812;8.198;2023-05-23T14:10:08;3.40;;;3.05;;
65271;SDS011;51868;48.812;8.198;2023-05-23T14:12:37;4.72;;;2.97;;
65271;SDS011;51868;48.812;8.198;2023-05-23T14:15:05;3.40;;;3.10;;
65271;SDS011;51868;48.812;8.198;2023-05-23T14:17:34;3.75;;;3.05;;
65271;SDS011;51868;48.812;8.198;2023-05-23T14:20:02;2.97;;;2.70;;
65271;SDS011;51868;48.812;8.198;2023-05-23T14:22:31;3.50;;;3.20;;
65271;SDS011;51868;48.812;8.198;2023-05-23T14:24:59;3.92;;;2.97;;
65271;SDS011;51868;48.812;8.198;2023-05-23T14:27:28;3.38;;;3.08;;
65271;SDS011;51868;48.812;8.198;2023-05-23T14:29:56;3.60;;;3.25;;
65271;SDS011;51868;48.812;8.198;2023-05-23T14:32:24;3.38;;;3.05;;
65271;SDS011;51868;48.812;8.198;2023-05-23T14:34:52;5.25;;;3.42;;
65271;SDS011;51868;48.812;8.198;2023-05-23T14:37:20;3.78;;;3.20;;
65271;SDS011;51868;48.812;8.198;2023-05-23T14:39:48;3.95;;;3.33;;
65271;SDS011;51868;48.812;8.198;2023-05-23T14:42:15;3.38;;;2.83;;
65271;SDS011;51868;48.812;8.198;2023-05-23T14:44:45;4.20;;;3.10;;
65271;SDS011;51868;48.812;8.198;2023-05-23T14:47:13;4.55;;;3.55;;
65271;SDS011;51868;48.812;8.198;2023-05-23T14:49:41;4.38;;;3.30;;
65271;SDS011;51868;48.812;8.198;2023-05-23T14:52:08;6.78;;;3.50;;
65271;SDS011;51868;48.812;8.198;2023-05-23T14:54:39;3.78;;;3.40;;
65271;SDS011;51868;48.812;8.198;2023-05-23T14:57:08;3.50;;;3.20;;
65271;SDS011;51868;48.812;8.198;2023-05-23T14:59:37;3.72;;;3.38;;
65271;SDS011;51868;48.812;8.198;2023-05-23T15:02:09;4.32;;;3.42;;
65271;SDS011;51868;48.812;8.198;2023-05-23T15:04:52;3.63;;;3.30;;
65271;SDS011;51868;48.812;8.198;2023-05-23T15:07:19;3.65;;;3.35;;
65271;SDS011;51868;48.812;8.198;2023-05-23T15:09:47;3.40;;;3.10;;
65271;SDS011;51868;48.812;8.198;2023-05-23T15:12:15;5.50;;;3.80;;
65271;SDS011;51868;48.812;8.198;2023-05-23T15:14:43;5.53;;;3.67;;
65271;SDS011;51868;48.812;8.198;2023-05-23T15:17:12;5.57;;;3.78;;
65271;SDS011;51868;48.812;8.198;2023-05-23T15:19:45;4.35;;;3.90;;
65271;SDS011;51868;48.812;8.198;2023-05-23T15:22:13;5.13;;;4.10;;
65271;SDS011;51868;48.812;8.198;2023-05-23T15:25:01;5.43;;;4.13;;